createdAt,value
2018-06-19T00:00:55.251Z,0.00
2018-06-19T00:01:55.277Z,0.00
2018-06-19T00:02:55.293Z,0.00
2018-06-19T00:03:55.318Z,0.00
2018-06-19T00:04:55.344Z,0.00
2018-06-19T00:05:55.369Z,0.00
2018-06-19T00:06:55.695Z,0.00
2018-06-19T00:07:55.409Z,0.00
2018-06-19T00:08:55.436Z,0.00
2018-06-19T00:09:55.460Z,0.00
2018-06-19T00:10:55.486Z,0.00
2018-06-19T00:11:55.511Z,0.00
2018-06-19T00:12:55.530Z,0.00
2018-06-19T00:13:55.554Z,0.00
2018-06-19T00:14:55.577Z,0.00
2018-06-19T00:15:55.605Z,0.00
2018-06-19T00:16:55.630Z,0.00
2018-06-19T00:17:55.643Z,0.00
2018-06-19T00:18:55.668Z,0.00
2018-06-19T00:19:55.695Z,0.00
2018-06-19T00:20:55.720Z,0.00
2018-06-19T00:21:55.760Z,0.00
2018-06-19T00:22:55.771Z,0.00
2018-06-19T00:23:55.786Z,0.00
2018-06-19T00:24:55.812Z,0.00
2018-06-19T00:25:55.838Z,0.00
2018-06-19T00:26:55.864Z,0.00
2018-06-19T00:27:55.890Z,0.00
2018-06-19T00:28:55.903Z,0.00
2018-06-19T00:29:55.929Z,0.00
2018-06-19T00:30:55.956Z,0.00
2018-06-19T00:31:55.980Z,0.00
2018-06-19T00:32:56.007Z,0.00
2018-06-19T00:33:56.021Z,0.00
2018-06-19T00:34:56.047Z,0.00
2018-06-19T00:35:56.076Z,0.00
2018-06-19T00:36:56.098Z,0.00
2018-06-19T00:37:56.124Z,0.00
2018-06-19T00:38:56.150Z,0.00
2018-06-19T00:39:56.163Z,0.00
2018-06-19T00:40:56.191Z,0.00
2018-06-19T00:41:56.214Z,0.00
2018-06-19T00:42:56.242Z,0.00
2018-06-19T00:43:56.267Z,0.00
2018-06-19T00:44:56.281Z,0.00
2018-06-19T00:45:56.307Z,0.00
2018-06-19T00:46:56.332Z,0.00
2018-06-19T00:47:56.360Z,0.00
2018-06-19T00:48:56.384Z,0.00
2018-06-19T00:49:56.399Z,0.00
2018-06-19T00:50:56.437Z,0.00
2018-06-19T00:51:56.449Z,0.00
2018-06-19T00:52:56.476Z,0.00
2018-06-19T00:53:56.501Z,0.00
2018-06-19T00:54:56.527Z,0.00
2018-06-19T00:55:56.542Z,0.00
2018-06-19T00:56:56.567Z,0.00
2018-06-19T00:57:56.592Z,0.00
2018-06-19T00:58:56.619Z,0.00
2018-06-19T00:59:56.644Z,0.00
2018-06-19T01:00:56.658Z,0.00
2018-06-19T01:01:56.685Z,0.00
2018-06-19T01:02:56.709Z,0.00
2018-06-19T01:03:56.735Z,0.00
2018-06-19T01:04:56.761Z,0.00
2018-06-19T01:05:56.787Z,0.00
2018-06-19T01:06:56.802Z,0.00
2018-06-19T01:07:56.827Z,0.00
2018-06-19T01:08:56.853Z,0.00
2018-06-19T01:09:56.880Z,0.00
2018-06-19T01:10:56.909Z,0.00
2018-06-19T01:11:56.931Z,0.00
2018-06-19T01:12:56.944Z,0.00
2018-06-19T01:13:56.969Z,0.00
2018-06-19T01:14:56.996Z,0.00
2018-06-19T01:15:57.022Z,0.00
2018-06-19T01:16:57.047Z,0.00
2018-06-19T01:17:57.074Z,0.00
2018-06-19T01:18:57.092Z,0.00
2018-06-19T01:19:57.115Z,0.00
2018-06-19T01:20:57.141Z,0.00
2018-06-19T01:21:57.165Z,0.00
2018-06-19T01:22:57.192Z,0.00
2018-06-19T01:23:57.218Z,0.00
2018-06-19T01:24:57.231Z,0.00
2018-06-19T01:25:57.270Z,0.00
2018-06-19T01:26:57.282Z,0.00
2018-06-19T01:27:57.309Z,0.00
2018-06-19T01:28:57.334Z,0.00
2018-06-19T01:29:57.353Z,0.00
2018-06-19T01:30:57.374Z,0.00
2018-06-19T01:31:57.402Z,0.00
2018-06-19T01:32:57.425Z,0.00
2018-06-19T01:33:57.453Z,0.00
2018-06-19T01:34:57.478Z,0.00
2018-06-19T01:35:57.491Z,0.00
2018-06-19T01:36:57.517Z,0.00
2018-06-19T01:37:57.604Z,0.00
2018-06-19T01:38:57.569Z,0.00
2018-06-19T01:39:57.595Z,0.00
2018-06-19T01:40:57.621Z,0.00
2018-06-19T01:41:57.635Z,0.00
2018-06-19T01:42:57.660Z,0.00
2018-06-19T01:43:57.687Z,0.00
2018-06-19T01:44:57.713Z,0.00
2018-06-19T01:45:57.743Z,0.00
2018-06-19T01:46:57.765Z,0.00
2018-06-19T01:47:57.790Z,0.00
2018-06-19T01:48:57.803Z,0.00
2018-06-19T01:49:57.829Z,0.00
2018-06-19T01:50:57.855Z,0.00
2018-06-19T01:51:57.882Z,0.00
2018-06-19T01:52:57.895Z,4.00
2018-06-19T01:53:57.921Z,4.00
2018-06-19T01:54:57.951Z,4.00
2018-06-19T01:55:57.973Z,0.00
2018-06-19T01:56:57.999Z,0.00
2018-06-19T01:57:58.025Z,4.00
2018-06-19T01:58:58.038Z,4.00
2018-06-19T01:59:58.067Z,4.00
2018-06-19T02:00:58.090Z,4.00
2018-06-19T02:01:58.116Z,4.00
2018-06-19T02:02:58.141Z,8.00
2018-06-19T02:03:58.168Z,4.00
2018-06-19T02:04:58.181Z,8.00
2018-06-19T02:05:58.208Z,8.00
2018-06-19T02:06:58.234Z,8.00
2018-06-19T02:07:58.264Z,8.00
2018-06-19T02:08:58.272Z,12.00
2018-06-19T02:09:58.297Z,12.00
2018-06-19T02:10:58.325Z,16.00
2018-06-19T02:11:58.350Z,16.00
2018-06-19T02:12:58.375Z,20.00
2018-06-19T02:13:58.401Z,20.00
2018-06-19T02:14:58.416Z,24.00
2018-06-19T02:15:58.442Z,24.00
2018-06-19T02:16:58.468Z,28.00
2018-06-19T02:17:58.494Z,32.00
2018-06-19T02:18:58.508Z,32.00
2018-06-19T02:19:58.535Z,40.00
2018-06-19T02:20:58.558Z,44.00
2018-06-19T02:21:58.583Z,48.00
2018-06-19T02:22:58.610Z,52.00
2018-06-19T02:23:58.624Z,60.00
2018-06-19T02:24:58.652Z,68.00
2018-06-19T02:25:58.677Z,72.00
2018-06-19T02:26:58.705Z,80.00
2018-06-19T02:27:58.729Z,84.00
2018-06-19T02:28:58.740Z,92.00
2018-06-19T02:29:58.768Z,100.00
2018-06-19T02:30:58.792Z,108.00
2018-06-19T02:31:58.818Z,120.00
2018-06-19T02:32:58.835Z,124.00
2018-06-19T02:33:58.859Z,124.00
2018-06-19T02:34:58.884Z,128.00
2018-06-19T02:35:58.910Z,152.00
2018-06-19T02:36:58.940Z,168.00
2018-06-19T02:37:58.948Z,176.00
2018-06-19T02:38:58.980Z,180.00
2018-06-19T02:39:59.003Z,172.00
2018-06-19T02:40:59.027Z,176.00
2018-06-19T02:41:59.041Z,192.00
2018-06-19T02:42:59.070Z,204.00
2018-06-19T02:43:59.093Z,216.00
2018-06-19T02:44:59.121Z,228.00
2018-06-19T02:45:59.145Z,236.00
2018-06-19T02:46:59.160Z,252.00
2018-06-19T02:47:59.188Z,284.00
2018-06-19T02:48:59.209Z,328.00
2018-06-19T02:49:59.238Z,368.00
2018-06-19T02:50:59.250Z,416.00
2018-06-19T02:51:59.275Z,448.00
2018-06-19T02:52:59.300Z,492.00
2018-06-19T02:53:59.333Z,528.00
2018-06-19T02:54:59.340Z,560.00
2018-06-19T02:55:59.366Z,588.00
2018-06-19T02:56:59.394Z,620.00
2018-06-19T02:57:59.418Z,644.00
2018-06-19T02:58:59.444Z,688.00
2018-06-19T02:59:59.459Z,736.00
2018-06-19T03:00:59.484Z,776.00
2018-06-19T03:01:59.509Z,824.00
2018-06-19T03:02:59.539Z,860.00
2018-06-19T03:03:59.571Z,932.00
2018-06-19T03:04:59.575Z,1036.00
2018-06-19T03:05:59.600Z,1152.00
2018-06-19T03:06:59.628Z,1156.00
2018-06-19T03:07:59.642Z,1084.00
2018-06-19T03:08:59.666Z,892.00
2018-06-19T03:09:59.693Z,804.00
2018-06-19T03:10:59.718Z,792.00
2018-06-19T03:11:59.732Z,716.00
2018-06-19T03:12:59.757Z,640.00
2018-06-19T03:13:59.786Z,568.00
2018-06-19T03:14:59.821Z,476.00
2018-06-19T03:15:59.836Z,404.00
2018-06-19T03:16:59.849Z,340.00
2018-06-19T03:17:59.875Z,336.00
2018-06-19T03:18:59.903Z,408.00
2018-06-19T03:19:59.927Z,396.00
2018-06-19T03:20:59.939Z,392.00
2018-06-19T03:21:59.978Z,428.00
2018-06-19T03:22:59.992Z,440.00
2018-06-19T03:24:00.020Z,492.00
2018-06-19T03:25:00.046Z,640.00
2018-06-19T03:26:00.058Z,528.00
2018-06-19T03:27:00.084Z,360.00
2018-06-19T03:28:00.109Z,308.00
2018-06-19T03:29:00.134Z,376.00
2018-06-19T03:30:00.149Z,676.00
2018-06-19T03:31:00.174Z,1136.00
2018-06-19T03:32:00.202Z,1324.00
2018-06-19T03:33:00.225Z,1216.00
2018-06-19T03:34:00.251Z,1108.00
2018-06-19T03:35:00.269Z,1064.00
2018-06-19T03:36:00.299Z,1356.00
2018-06-19T03:37:00.319Z,1816.00
2018-06-19T03:38:00.344Z,2080.00
2018-06-19T03:39:00.357Z,2176.00
2018-06-19T03:40:00.382Z,1912.00
2018-06-19T03:41:00.409Z,1476.00
2018-06-19T03:42:00.435Z,1444.00
2018-06-19T03:43:00.460Z,1624.00
2018-06-19T03:44:00.475Z,1820.00
2018-06-19T03:45:00.503Z,1984.00
2018-06-19T03:46:00.526Z,2048.00
2018-06-19T03:47:00.552Z,1832.00
2018-06-19T03:48:00.581Z,1276.00
2018-06-19T03:49:00.591Z,1196.00
2018-06-19T03:50:00.617Z,1708.00
2018-06-19T03:51:00.656Z,1732.00
2018-06-19T03:52:00.670Z,1620.00
2018-06-19T03:53:00.685Z,1612.00
2018-06-19T03:54:00.709Z,1648.00
2018-06-19T03:55:00.736Z,1776.00
2018-06-19T03:56:00.761Z,1900.00
2018-06-19T03:57:00.787Z,2312.00
2018-06-19T03:58:00.804Z,2440.00
2018-06-19T03:59:00.826Z,2204.00
2018-06-19T04:00:00.851Z,1688.00
2018-06-19T04:01:00.877Z,1460.00
2018-06-19T04:02:00.907Z,1540.00
2018-06-19T04:03:00.919Z,1752.00
2018-06-19T04:04:00.943Z,1792.00
2018-06-19T04:05:00.972Z,1972.00
2018-06-19T04:06:00.995Z,2008.00
2018-06-19T04:07:01.009Z,2116.00
2018-06-19T04:08:01.033Z,2488.00
2018-06-19T04:09:01.060Z,2696.00
2018-06-19T04:10:01.085Z,2600.00
2018-06-19T04:11:01.112Z,2356.00
2018-06-19T04:12:01.144Z,2220.00
2018-06-19T04:13:01.152Z,1936.00
2018-06-19T04:14:01.177Z,1680.00
2018-06-19T04:15:01.204Z,1712.00
2018-06-19T04:16:01.231Z,2068.00
2018-06-19T04:17:01.242Z,2192.00
2018-06-19T04:18:01.268Z,1856.00
2018-06-19T04:19:01.295Z,1384.00
2018-06-19T04:20:01.333Z,1116.00
2018-06-19T04:21:01.334Z,1224.00
2018-06-19T04:22:01.361Z,1932.00
2018-06-19T04:23:01.387Z,2400.00
2018-06-19T04:24:01.412Z,2428.00
2018-06-19T04:25:01.438Z,2156.00
2018-06-19T04:26:01.464Z,2164.00
2018-06-19T04:27:01.476Z,2052.00
2018-06-19T04:28:01.504Z,1868.00
2018-06-19T04:29:01.528Z,1828.00
2018-06-19T04:30:01.555Z,1872.00
2018-06-19T04:31:01.569Z,1884.00
2018-06-19T04:32:01.595Z,1876.00
2018-06-19T04:33:01.620Z,1968.00
2018-06-19T04:34:01.649Z,2168.00
2018-06-19T04:35:01.672Z,2268.00
2018-06-19T04:36:01.687Z,2504.00
2018-06-19T04:37:01.721Z,2580.00
2018-06-19T04:38:01.738Z,2568.00
2018-06-19T04:39:01.763Z,2784.00
2018-06-19T04:40:01.791Z,3052.00
2018-06-19T04:41:01.814Z,3056.00
2018-06-19T04:42:01.857Z,2856.00
2018-06-19T04:43:01.855Z,3180.00
2018-06-19T04:44:01.881Z,4044.00
2018-06-19T04:45:01.907Z,4700.00
2018-06-19T04:46:01.919Z,4812.00
2018-06-19T04:47:01.947Z,4700.00
2018-06-19T04:48:01.971Z,4376.00
2018-06-19T04:49:02.013Z,4204.00
2018-06-19T04:50:02.023Z,4496.00
2018-06-19T04:51:02.045Z,5096.00
2018-06-19T04:52:02.063Z,5548.00
2018-06-19T04:53:02.098Z,5580.00
2018-06-19T04:54:02.119Z,5588.00
2018-06-19T04:55:02.142Z,6016.00
2018-06-19T04:56:02.156Z,6580.00
2018-06-19T04:57:02.179Z,7068.00
2018-06-19T04:58:02.211Z,7436.00
2018-06-19T04:59:02.232Z,7380.00
2018-06-19T05:00:02.258Z,7248.00
2018-06-19T05:01:02.284Z,7128.00
2018-06-19T05:02:02.298Z,7036.00
2018-06-19T05:03:02.328Z,7248.00
2018-06-19T05:04:02.350Z,7584.00
2018-06-19T05:05:02.377Z,7916.00
2018-06-19T05:06:02.402Z,7944.00
2018-06-19T05:07:02.428Z,7908.00
2018-06-19T05:08:02.441Z,7756.00
2018-06-19T05:09:02.468Z,7412.00
2018-06-19T05:10:02.492Z,6748.00
2018-06-19T05:11:02.519Z,6612.00
2018-06-19T05:12:02.544Z,7160.00
2018-06-19T05:13:02.583Z,7528.00
2018-06-19T05:14:02.585Z,7676.00
2018-06-19T05:15:02.610Z,7752.00
2018-06-19T05:16:02.636Z,7900.00
2018-06-19T05:17:02.662Z,7788.00
2018-06-19T05:18:02.688Z,7424.00
2018-06-19T05:19:02.714Z,6972.00
2018-06-19T05:20:02.741Z,7516.00
2018-06-19T05:21:02.754Z,8324.00
2018-06-19T05:22:02.779Z,9036.00
2018-06-19T05:23:02.818Z,9836.00
2018-06-19T05:24:02.830Z,10372.00
2018-06-19T05:25:02.857Z,10756.00
2018-06-19T05:26:02.882Z,10964.00
2018-06-19T05:27:02.913Z,11428.00
2018-06-19T05:28:02.934Z,11660.00
2018-06-19T05:29:02.949Z,11948.00
2018-06-19T05:30:02.975Z,12304.00
2018-06-19T05:31:03.003Z,12748.00
2018-06-19T05:32:03.027Z,12836.00
2018-06-19T05:33:03.053Z,12608.00
2018-06-19T05:34:03.079Z,12288.00
2018-06-19T05:35:03.180Z,12240.00
2018-06-19T05:36:03.131Z,11936.00
2018-06-19T05:37:03.156Z,12468.00
2018-06-19T05:38:03.182Z,13360.00
2018-06-19T05:39:03.207Z,13188.00
2018-06-19T05:40:03.221Z,12020.00
2018-06-19T05:41:03.249Z,11528.00
2018-06-19T05:42:03.275Z,11360.00
2018-06-19T05:43:03.299Z,10320.00
2018-06-19T05:44:03.324Z,9740.00
2018-06-19T05:45:03.368Z,11156.00
2018-06-19T05:46:03.375Z,11352.00
2018-06-19T05:47:03.403Z,11588.00
2018-06-19T05:48:03.430Z,11072.00
2018-06-19T05:49:03.455Z,11036.00
2018-06-19T05:50:03.483Z,12884.00
2018-06-19T05:51:03.506Z,14224.00
2018-06-19T05:52:03.532Z,13872.00
2018-06-19T05:53:03.548Z,13596.00
2018-06-19T05:54:03.572Z,14188.00
2018-06-19T05:55:03.598Z,14208.00
2018-06-19T05:56:03.624Z,13204.00
2018-06-19T05:57:03.651Z,14132.00
2018-06-19T05:58:03.675Z,16332.00
2018-06-19T05:59:03.705Z,15248.00
2018-06-19T06:00:03.731Z,16064.00
2018-06-19T06:01:03.754Z,15204.00
2018-06-19T06:02:03.779Z,12184.00
2018-06-19T06:03:03.805Z,16976.00
2018-06-19T06:04:03.832Z,18816.00
2018-06-19T06:05:03.857Z,16672.00
2018-06-19T06:06:03.884Z,13172.00
2018-06-19T06:07:03.897Z,16732.00
2018-06-19T06:08:03.923Z,18464.00
2018-06-19T06:09:03.948Z,23040.00
2018-06-19T06:10:03.975Z,15012.00
2018-06-19T06:11:04.053Z,14728.00
2018-06-19T06:12:04.026Z,10908.00
2018-06-19T06:13:04.051Z,10860.00
2018-06-19T06:14:04.079Z,12156.00
2018-06-19T06:15:04.106Z,13388.00
2018-06-19T06:16:04.129Z,16488.00
2018-06-19T06:17:04.157Z,40640.00
2018-06-19T06:18:04.183Z,19936.00
2018-06-19T06:19:04.207Z,18688.00
2018-06-19T06:20:04.236Z,22048.00
2018-06-19T06:21:04.274Z,12292.00
2018-06-19T06:22:04.330Z,28288.00
2018-06-19T06:23:04.315Z,41216.00
2018-06-19T06:24:04.337Z,49824.00
2018-06-19T06:25:04.363Z,48928.00
2018-06-19T06:26:04.389Z,10924.00
2018-06-19T06:27:04.432Z,25312.00
2018-06-19T06:28:04.441Z,49536.00
2018-06-19T06:29:04.468Z,65312.00
2018-06-19T06:30:04.494Z,63904.00
2018-06-19T06:31:04.520Z,60768.00
2018-06-19T06:32:04.549Z,59296.00
2018-06-19T06:33:04.572Z,56032.00
2018-06-19T06:34:04.599Z,53344.00
2018-06-19T06:35:04.623Z,14284.00
2018-06-19T06:36:04.650Z,61184.00
2018-06-19T06:37:04.718Z,59104.00
2018-06-19T06:38:04.718Z,54240.00
2018-06-19T06:39:04.740Z,48512.00
2018-06-19T06:40:04.765Z,57280.00
2018-06-19T06:41:04.792Z,58624.00
2018-06-19T06:42:04.839Z,57632.00
2018-06-19T06:43:04.856Z,52704.00
2018-06-19T06:44:04.880Z,36416.00
2018-06-19T06:45:04.907Z,38688.00
2018-06-19T06:46:04.946Z,46208.00
2018-06-19T06:47:04.973Z,19776.00
2018-06-19T06:48:05.002Z,35072.00
2018-06-19T06:49:05.050Z,41120.00
2018-06-19T06:50:05.061Z,33280.00
2018-06-19T06:51:05.089Z,14108.00
2018-06-19T06:52:05.131Z,50432.00
2018-06-19T06:53:05.154Z,17908.00
2018-06-19T06:54:05.179Z,44704.00
2018-06-19T06:55:05.217Z,49856.00
2018-06-19T06:56:05.243Z,10960.00
2018-06-19T06:57:05.269Z,48576.00
2018-06-19T06:58:05.313Z,57952.00
2018-06-19T06:59:05.334Z,64416.00
2018-06-19T07:00:05.372Z,68064.00
2018-06-19T07:01:05.454Z,64608.00
2018-06-19T07:02:05.425Z,63360.00
2018-06-19T07:03:05.462Z,65088.00
2018-06-19T07:04:05.551Z,63200.00
2018-06-19T07:05:05.527Z,63552.00
2018-06-19T07:06:05.552Z,71936.00
2018-06-19T07:07:05.591Z,70496.00
2018-06-19T07:08:05.625Z,61600.00
2018-06-19T07:09:05.643Z,68192.00
2018-06-19T07:10:05.749Z,66528.00
2018-06-19T07:11:05.722Z,68320.00
2018-06-19T07:12:05.745Z,71168.00
2018-06-19T07:13:05.784Z,73760.00
2018-06-19T07:14:05.809Z,71808.00
2018-06-19T07:15:05.850Z,70656.00
2018-06-19T07:16:05.875Z,71040.00
2018-06-19T07:17:05.925Z,75520.00
2018-06-19T07:18:05.939Z,37216.00
2018-06-19T07:19:06.034Z,69920.00
2018-06-19T07:20:06.029Z,72832.00
2018-06-19T07:21:06.041Z,72288.00
2018-06-19T07:22:06.082Z,70048.00
2018-06-19T07:23:06.122Z,72096.00
2018-06-19T07:24:06.144Z,71264.00
2018-06-19T07:25:06.184Z,71232.00
2018-06-19T07:26:06.215Z,70912.00
2018-06-19T07:27:06.247Z,71232.00
2018-06-19T07:28:06.286Z,73056.00
2018-06-19T07:29:06.312Z,68864.00
2018-06-19T07:30:06.349Z,63872.00
2018-06-19T07:31:06.391Z,67072.00
2018-06-19T07:32:06.444Z,70400.00
2018-06-19T07:33:06.453Z,75072.00
2018-06-19T07:34:06.492Z,77536.00
2018-06-19T07:35:06.529Z,74080.00
2018-06-19T07:36:06.558Z,74720.00
2018-06-19T07:37:06.595Z,75456.00
2018-06-19T07:38:06.709Z,73280.00
2018-06-19T07:39:06.671Z,71552.00
2018-06-19T07:40:06.702Z,70336.00
2018-06-19T07:41:06.735Z,70944.00
2018-06-19T07:42:06.774Z,71136.00
2018-06-19T07:43:06.813Z,72096.00
2018-06-19T07:44:06.870Z,73248.00
2018-06-19T07:45:06.877Z,72992.00
2018-06-19T07:46:06.915Z,68768.00
2018-06-19T07:47:06.953Z,66688.00
2018-06-19T07:48:06.980Z,66688.00
2018-06-19T07:49:07.018Z,70336.00
2018-06-19T07:50:07.057Z,70464.00
2018-06-19T07:51:07.094Z,71232.00
2018-06-19T07:52:07.133Z,70560.00
2018-06-19T07:53:07.160Z,58336.00
2018-06-19T07:54:07.198Z,69792.00
2018-06-19T07:55:07.237Z,71392.00
2018-06-19T07:56:07.275Z,72224.00
2018-06-19T07:57:07.313Z,76032.00
2018-06-19T07:58:07.351Z,73952.00
2018-06-19T07:59:07.377Z,75456.00
2018-06-19T08:00:07.417Z,70432.00
2018-06-19T08:01:07.454Z,78624.00
2018-06-19T08:02:07.494Z,77888.00
2018-06-19T08:03:07.531Z,73888.00
2018-06-19T08:04:07.571Z,74624.00
2018-06-19T08:05:07.597Z,75616.00
2018-06-19T08:06:07.634Z,74304.00
2018-06-19T08:07:07.677Z,75040.00
2018-06-19T08:08:07.712Z,76832.00
2018-06-19T08:09:07.750Z,77024.00
2018-06-19T08:10:07.788Z,76576.00
2018-06-19T08:11:07.828Z,74528.00
2018-06-19T08:12:07.865Z,75008.00
2018-06-19T08:13:07.894Z,77792.00
2018-06-19T08:14:07.941Z,77184.00
2018-06-19T08:15:07.980Z,75648.00
2018-06-19T08:16:08.007Z,78432.00
2018-06-19T08:17:08.044Z,82336.00
2018-06-19T08:18:08.084Z,76960.00
2018-06-19T08:19:08.120Z,75264.00
2018-06-19T08:20:08.164Z,76640.00
2018-06-19T08:21:08.198Z,76576.00
2018-06-19T08:22:08.238Z,73120.00
2018-06-19T08:23:08.277Z,73088.00
2018-06-19T08:24:08.315Z,73984.00
2018-06-19T08:25:08.352Z,74592.00
2018-06-19T08:26:08.391Z,73792.00
2018-06-19T08:27:08.430Z,72096.00
2018-06-19T08:28:08.467Z,66304.00
2018-06-19T08:29:08.507Z,62464.00
2018-06-19T08:30:08.545Z,66272.00
2018-06-19T08:31:08.584Z,72096.00
2018-06-19T08:32:08.621Z,70656.00
2018-06-19T08:33:08.660Z,71680.00
2018-06-19T08:34:08.700Z,75648.00
2018-06-19T08:35:08.736Z,75136.00
2018-06-19T08:36:08.816Z,72736.00
2018-06-19T08:37:08.826Z,72832.00
2018-06-19T08:38:08.855Z,73344.00
2018-06-19T08:39:08.889Z,76608.00
2018-06-19T08:40:08.929Z,80768.00
2018-06-19T08:41:08.967Z,81088.00
2018-06-19T08:42:09.006Z,77312.00
2018-06-19T08:43:09.043Z,81344.00
2018-06-19T08:44:09.083Z,82592.00
2018-06-19T08:45:09.120Z,83360.00
2018-06-19T08:46:09.160Z,86432.00
2018-06-19T08:47:09.197Z,88928.00
2018-06-19T08:48:09.237Z,93024.00
2018-06-19T08:49:09.281Z,22816.00
2018-06-19T08:50:09.313Z,86080.00
2018-06-19T08:51:09.354Z,82912.00
2018-06-19T08:52:09.402Z,85280.00
2018-06-19T08:53:09.441Z,84992.00
2018-06-19T08:54:09.479Z,82048.00
2018-06-19T08:55:09.523Z,80608.00
2018-06-19T08:56:09.556Z,81568.00
2018-06-19T08:57:09.597Z,85344.00
2018-06-19T08:58:09.646Z,82464.00
2018-06-19T08:59:09.683Z,82880.00
2018-06-19T09:00:09.723Z,92448.00
2018-06-19T09:01:09.761Z,95520.00
2018-06-19T09:02:09.799Z,93440.00
2018-06-19T09:03:09.840Z,91264.00
2018-06-19T09:04:09.876Z,90720.00
2018-06-19T09:05:09.919Z,94752.00
2018-06-19T09:06:09.965Z,94528.00
2018-06-19T09:07:10.007Z,94848.00
2018-06-19T09:08:10.043Z,94496.00
2018-06-19T09:09:10.082Z,94112.00
2018-06-19T09:10:10.119Z,96704.00
2018-06-19T09:11:10.158Z,94400.00
2018-06-19T09:12:10.209Z,93760.00
2018-06-19T09:13:10.247Z,91392.00
2018-06-19T09:14:10.286Z,89408.00
2018-06-19T09:15:10.325Z,92000.00
2018-06-19T09:16:10.364Z,95712.00
2018-06-19T09:17:10.418Z,96512.00
2018-06-19T09:18:10.452Z,93376.00
2018-06-19T09:19:10.491Z,93344.00
2018-06-19T09:20:10.566Z,98432.00
2018-06-19T09:21:10.569Z,104672.00
2018-06-19T09:22:10.619Z,105056.00
2018-06-19T09:23:10.657Z,25792.00
2018-06-19T09:24:10.706Z,33920.00
2018-06-19T09:25:10.734Z,97664.00
2018-06-19T09:26:10.786Z,96032.00
2018-06-19T09:27:10.823Z,97088.00
2018-06-19T09:28:10.864Z,90816.00
2018-06-19T09:29:10.900Z,41504.00
2018-06-19T09:30:10.951Z,34496.00
2018-06-19T09:31:10.990Z,27968.00
2018-06-19T09:32:11.031Z,29728.00
2018-06-19T09:33:11.079Z,31264.00
2018-06-19T09:34:11.108Z,30752.00
2018-06-19T09:35:11.160Z,32512.00
2018-06-19T09:36:11.194Z,34144.00
2018-06-19T09:37:11.233Z,38272.00
2018-06-19T09:38:11.275Z,43840.00
2018-06-19T09:39:11.311Z,85248.00
2018-06-19T09:40:11.349Z,59104.00
2018-06-19T09:41:11.387Z,42272.00
2018-06-19T09:42:11.424Z,42176.00
2018-06-19T09:43:11.465Z,46112.00
2018-06-19T09:44:11.502Z,66752.00
2018-06-19T09:45:11.528Z,122464.00
2018-06-19T09:46:11.566Z,123328.00
2018-06-19T09:47:11.615Z,122944.00
2018-06-19T09:48:11.643Z,100672.00
2018-06-19T09:49:11.682Z,72864.00
2018-06-19T09:50:11.732Z,63776.00
2018-06-19T09:51:11.758Z,54752.00
2018-06-19T09:52:11.797Z,63008.00
2018-06-19T09:53:11.836Z,87680.00
2018-06-19T09:54:11.885Z,63584.00
2018-06-19T09:55:11.925Z,60576.00
2018-06-19T09:56:11.962Z,72192.00
2018-06-19T09:57:12.001Z,76512.00
2018-06-19T09:58:12.040Z,83584.00
2018-06-19T09:59:12.161Z,71232.00
2018-06-19T10:00:12.116Z,54464.00
2018-06-19T10:01:12.155Z,38720.00
2018-06-19T10:02:12.194Z,36320.00
2018-06-19T10:03:12.232Z,36352.00
2018-06-19T10:04:12.269Z,36320.00
2018-06-19T10:05:12.312Z,37376.00
2018-06-19T10:06:12.395Z,38112.00
2018-06-19T10:07:12.386Z,38336.00
2018-06-19T10:08:12.422Z,37440.00
2018-06-19T10:09:12.462Z,38048.00
2018-06-19T10:10:12.500Z,36832.00
2018-06-19T10:11:12.539Z,36960.00
2018-06-19T10:12:12.713Z,36160.00
2018-06-19T10:13:12.608Z,34336.00
2018-06-19T10:14:12.661Z,33856.00
2018-06-19T10:15:12.681Z,35104.00
2018-06-19T10:16:12.720Z,34784.00
2018-06-19T10:17:12.759Z,34560.00
2018-06-19T10:18:12.784Z,34112.00
2018-06-19T10:19:12.823Z,33824.00
2018-06-19T10:20:12.861Z,34144.00
2018-06-19T10:21:12.900Z,34144.00
2018-06-19T10:22:12.937Z,34304.00
2018-06-19T10:23:12.964Z,33888.00
2018-06-19T10:24:13.002Z,32224.00
2018-06-19T10:25:13.040Z,29344.00
2018-06-19T10:26:13.078Z,27456.00
2018-06-19T10:27:13.105Z,27008.00
2018-06-19T10:28:13.142Z,26432.00
2018-06-19T10:29:13.181Z,24640.00
2018-06-19T10:30:13.211Z,23232.00
2018-06-19T10:31:13.246Z,22912.00
2018-06-19T10:32:13.284Z,22400.00
2018-06-19T10:33:13.311Z,21312.00
2018-06-19T10:34:13.348Z,21024.00
2018-06-19T10:35:13.387Z,22400.00
2018-06-19T10:36:13.416Z,23936.00
2018-06-19T10:37:13.451Z,25344.00
2018-06-19T10:38:13.477Z,27616.00
2018-06-19T10:39:13.516Z,32128.00
2018-06-19T10:40:13.594Z,38144.00
2018-06-19T10:41:13.580Z,40544.00
2018-06-19T10:42:13.619Z,37152.00
2018-06-19T10:43:13.644Z,34464.00
2018-06-19T10:44:13.683Z,34240.00
2018-06-19T10:45:13.725Z,34144.00
2018-06-19T10:46:13.751Z,33920.00
2018-06-19T10:47:13.787Z,33344.00
2018-06-19T10:48:13.812Z,33888.00
2018-06-19T10:49:13.851Z,35040.00
2018-06-19T10:50:13.890Z,35776.00
2018-06-19T10:51:13.915Z,36864.00
2018-06-19T10:52:13.953Z,38368.00
2018-06-19T10:53:13.984Z,39200.00
2018-06-19T10:54:14.020Z,39168.00
2018-06-19T10:55:14.056Z,39008.00
2018-06-19T10:56:14.082Z,39840.00
2018-06-19T10:57:14.108Z,40480.00
2018-06-19T10:58:14.146Z,38496.00
2018-06-19T10:59:14.172Z,36032.00
2018-06-19T11:00:14.211Z,36800.00
2018-06-19T11:01:14.248Z,39296.00
2018-06-19T11:02:14.275Z,37536.00
2018-06-19T11:03:14.314Z,37504.00
2018-06-19T11:04:14.339Z,39456.00
2018-06-19T11:05:14.465Z,40544.00
2018-06-19T11:06:14.404Z,41920.00
2018-06-19T11:07:14.471Z,40832.00
2018-06-19T11:08:14.552Z,41568.00
2018-06-19T11:09:14.509Z,40256.00
2018-06-19T11:10:14.545Z,40256.00
2018-06-19T11:11:14.583Z,39488.00
2018-06-19T11:12:14.609Z,37248.00
2018-06-19T11:13:14.648Z,35072.00
2018-06-19T11:14:14.674Z,32384.00
2018-06-19T11:15:14.712Z,30944.00
2018-06-19T11:16:14.751Z,31488.00
2018-06-19T11:17:14.777Z,32864.00
2018-06-19T11:18:14.814Z,32000.00
2018-06-19T11:19:14.840Z,32608.00
2018-06-19T11:20:14.880Z,33856.00
2018-06-19T11:21:14.917Z,32992.00
2018-06-19T11:22:14.950Z,31744.00
2018-06-19T11:23:14.981Z,31296.00
2018-06-19T11:24:15.008Z,31392.00
2018-06-19T11:25:15.047Z,29952.00
2018-06-19T11:26:15.085Z,28512.00
2018-06-19T11:27:15.111Z,26944.00
2018-06-19T11:28:15.149Z,25440.00
2018-06-19T11:29:15.188Z,24672.00
2018-06-19T11:30:15.216Z,24544.00
2018-06-19T11:31:15.239Z,23840.00
2018-06-19T11:32:15.278Z,22592.00
2018-06-19T11:33:15.305Z,21536.00
2018-06-19T11:34:15.342Z,21472.00
2018-06-19T11:35:15.380Z,22016.00
2018-06-19T11:36:15.406Z,22784.00
2018-06-19T11:37:15.445Z,23168.00
2018-06-19T11:38:15.482Z,23488.00
2018-06-19T11:39:15.508Z,23840.00
2018-06-19T11:40:15.534Z,23840.00
2018-06-19T11:41:15.574Z,24032.00
2018-06-19T11:42:15.601Z,25408.00
2018-06-19T11:43:15.639Z,27360.00
2018-06-19T11:44:15.677Z,28192.00
2018-06-19T11:45:15.704Z,27744.00
2018-06-19T11:46:15.729Z,27424.00
2018-06-19T11:47:15.766Z,27776.00
2018-06-19T11:48:15.792Z,27936.00
2018-06-19T11:49:15.858Z,29088.00
2018-06-19T11:50:15.859Z,31104.00
2018-06-19T11:51:15.947Z,33120.00
2018-06-19T11:52:15.921Z,35040.00
2018-06-19T11:53:15.949Z,36896.00
2018-06-19T11:54:15.986Z,38784.00
2018-06-19T11:55:16.024Z,42016.00
2018-06-19T11:56:16.050Z,50592.00
2018-06-19T11:57:16.076Z,53312.00
2018-06-19T11:58:16.115Z,80928.00
2018-06-19T11:59:16.152Z,49248.00
2018-06-19T12:00:16.178Z,48096.00
2018-06-19T12:01:16.232Z,58304.00
2018-06-19T12:02:16.244Z,78368.00
2018-06-19T12:03:16.285Z,91552.00
2018-06-19T12:04:16.308Z,52480.00
2018-06-19T12:05:16.346Z,50592.00
2018-06-19T12:06:16.373Z,43360.00
2018-06-19T12:07:16.410Z,46080.00
2018-06-19T12:08:16.451Z,55808.00